sensor_id;sensor_type;location;lat;lon;timestamp;temperature;humidity
81383;DHT22;70834;37.534;-122.308;2024-01-15T00:00:33;15.90;69.60
81383;DHT22;70834;37.534;-122.308;2024-01-15T00:02:54;16.00;70.20
81383;DHT22;70834;37.534;-122.308;2024-01-15T00:05:15;15.90;70.70
81383;DHT22;70834;37.534;-122.308;2024-01-15T00:07:36;15.90;70.50
81383;DHT22;70834;37.534;-122.308;2024-01-15T00:09:57;15.90;70.10
81383;DHT22;70834;37.534;-122.308;2024-01-15T00:12:18;15.90;70.20
81383;DHT22;70834;37.534;-122.308;2024-01-15T00:14:39;15.90;69.60
81383;DHT22;70834;37.534;-122.308;2024-01-15T00:17:00;15.90;70.00
81383;DHT22;70834;37.534;-122.308;2024-01-15T00:19:21;15.90;70.30
81383;DHT22;70834;37.534;-122.308;2024-01-15T00:21:42;15.90;70.30
81383;DHT22;70834;37.534;-122.308;2024-01-15T00:24:04;15.90;69.30
81383;DHT22;70834;37.534;-122.308;2024-01-15T00:26:25;15.90;69.40
81383;DHT22;70834;37.534;-122.308;2024-01-15T00:28:46;15.80;69.50
81383;DHT22;70834;37.534;-122.308;2024-01-15T00:31:07;15.80;69.50
81383;DHT22;70834;37.534;-122.308;2024-01-15T00:33:28;15.80;69.60
81383;DHT22;70834;37.534;-122.308;2024-01-15T00:35:49;15.70;69.70
81383;DHT22;70834;37.534;-122.308;2024-01-15T00:38:10;15.70;70.00
81383;DHT22;70834;37.534;-122.308;2024-01-15T00:40:31;15.60;70.10
81383;DHT22;70834;37.534;-122.308;2024-01-15T00:42:52;15.60;70.00
81383;DHT22;70834;37.534;-122.308;2024-01-15T00:45:13;15.50;70.10
81383;DHT22;70834;37.534;-122.308;2024-01-15T00:47:34;15.50;70.20
81383;DHT22;70834;37.534;-122.308;2024-01-15T00:49:55;15.40;70.40
81383;DHT22;70834;37.534;-122.308;2024-01-15T00:52:16;15.40;71.10
81383;DHT22;70834;37.534;-122.308;2024-01-15T00:54:37;15.30;71.20
81383;DHT22;70834;37.534;-122.308;2024-01-15T00:56:58;15.30;71.50
81383;DHT22;70834;37.534;-122.308;2024-01-15T00:59:19;15.20;71.70
81383;DHT22;70834;37.534;-122.308;2024-01-15T01:01:41;15.10;71.80
81383;DHT22;70834;37.534;-122.308;2024-01-15T01:04:06;15.10;72.10
81383;DHT22;70834;37.534;-122.308;2024-01-15T01:06:27;15.00;72.40
81383;DHT22;70834;37.534;-122.308;2024-01-15T01:08:49;15.00;72.70
81383;DHT22;70834;37.534;-122.308;2024-01-15T01:11:13;14.90;73.00
81383;DHT22;70834;37.534;-122.308;2024-01-15T01:13:34;14.80;73.10
81383;DHT22;70834;37.534;-122.308;2024-01-15T01:15:55;14.70;73.30
81383;DHT22;70834;37.534;-122.308;2024-01-15T01:18:17;14.60;73.60
81383;DHT22;70834;37.534;-122.308;2024-01-15T01:20:38;14.60;73.70
81383;DHT22;70834;37.534;-122.308;2024-01-15T01:23:00;14.50;73.80
81383;DHT22;70834;37.534;-122.308;2024-01-15T01:25:21;14.40;73.70
81383;DHT22;70834;37.534;-122.308;2024-01-15T01:27:42;14.40;74.20
81383;DHT22;70834;37.534;-122.308;2024-01-15T01:30:04;14.30;74.30
81383;DHT22;70834;37.534;-122.308;2024-01-15T01:32:26;14.30;74.30
81383;DHT22;70834;37.534;-122.308;2024-01-15T01:34:47;14.20;74.50
81383;DHT22;70834;37.534;-122.308;2024-01-15T01:37:09;14.10;74.80
81383;DHT22;70834;37.534;-122.308;2024-01-15T01:39:33;14.00;74.80
81383;DHT22;70834;37.534;-122.308;2024-01-15T01:41:57;14.00;75.00
81383;DHT22;70834;37.534;-122.308;2024-01-15T01:44:19;13.90;75.30
81383;DHT22;70834;37.534;-122.308;2024-01-15T01:46:41;13.80;75.30
81383;DHT22;70834;37.534;-122.308;2024-01-15T01:49:02;13.70;75.40
81383;DHT22;70834;37.534;-122.308;2024-01-15T01:51:26;13.70;75.50
81383;DHT22;70834;37.534;-122.308;2024-01-15T01:53:48;13.60;75.70
81383;DHT22;70834;37.534;-122.308;2024-01-15T01:56:16;13.50;75.80
81383;DHT22;70834;37.534;-122.308;2024-01-15T01:58:38;13.50;76.10
81383;DHT22;70834;37.534;-122.308;2024-01-15T02:01:00;13.40;76.40
81383;DHT22;70834;37.534;-122.308;2024-01-15T02:03:22;13.30;76.40
81383;DHT22;70834;37.534;-122.308;2024-01-15T02:05:44;13.30;76.50
81383;DHT22;70834;37.534;-122.308;2024-01-15T02:08:06;13.20;76.60
81383;DHT22;70834;37.534;-122.308;2024-01-15T02:10:28;13.10;76.80
81383;DHT22;70834;37.534;-122.308;2024-01-15T02:12:50;13.10;77.10
81383;DHT22;70834;37.534;-122.308;2024-01-15T02:15:12;13.00;77.20
81383;DHT22;70834;37.534;-122.308;2024-01-15T02:17:33;13.00;77.30
81383;DHT22;70834;37.534;-122.308;2024-01-15T02:19:56;12.90;77.50
81383;DHT22;70834;37.534;-122.308;2024-01-15T02:22:18;12.80;77.60
81383;DHT22;70834;37.534;-122.308;2024-01-15T02:24:40;12.80;77.70
81383;DHT22;70834;37.534;-122.308;2024-01-15T02:27:02;12.70;77.90
81383;DHT22;70834;37.534;-122.308;2024-01-15T02:29:24;12.70;78.00
81383;DHT22;70834;37.534;-122.308;2024-01-15T02:31:45;12.60;78.20
81383;DHT22;70834;37.534;-122.308;2024-01-15T02:34:07;12.60;78.60
81383;DHT22;70834;37.534;-122.308;2024-01-15T02:36:28;12.50;78.80
81383;DHT22;70834;37.534;-122.308;2024-01-15T02:38:50;12.50;79.00
81383;DHT22;70834;37.534;-122.308;2024-01-15T02:41:11;12.40;79.10
81383;DHT22;70834;37.534;-122.308;2024-01-15T02:43:35;12.40;79.50
81383;DHT22;70834;37.534;-122.308;2024-01-15T02:45:56;12.40;79.50
81383;DHT22;70834;37.534;-122.308;2024-01-15T02:48:18;12.30;79.70
81383;DHT22;70834;37.534;-122.308;2024-01-15T02:50:39;12.30;79.90
81383;DHT22;70834;37.534;-122.308;2024-01-15T02:53:01;12.30;80.00
81383;DHT22;70834;37.534;-122.308;2024-01-15T02:55:23;12.20;80.10
81383;DHT22;70834;37.534;-122.308;2024-01-15T02:57:45;12.20;80.20
81383;DHT22;70834;37.534;-122.308;2024-01-15T03:00:06;12.20;80.40
81383;DHT22;70834;37.534;-122.308;2024-01-15T03:02:28;12.10;80.50
81383;DHT22;70834;37.534;-122.308;2024-01-15T03:04:52;12.10;80.60
81383;DHT22;70834;37.534;-122.308;2024-01-15T03:07:13;12.10;80.70
81383;DHT22;70834;37.534;-122.308;2024-01-15T03:09:35;12.10;80.80
81383;DHT22;70834;37.534;-122.308;2024-01-15T03:11:57;12.10;80.90
81383;DHT22;70834;37.534;-122.308;2024-01-15T03:14:18;12.00;81.00
81383;DHT22;70834;37.534;-122.308;2024-01-15T03:16:41;12.00;81.10
81383;DHT22;70834;37.534;-122.308;2024-01-15T03:19:03;12.00;81.20
81383;DHT22;70834;37.534;-122.308;2024-01-15T03:21:24;12.00;81.30
81383;DHT22;70834;37.534;-122.308;2024-01-15T03:23:45;11.90;81.30
81383;DHT22;70834;37.534;-122.308;2024-01-15T03:26:07;11.90;81.30
81383;DHT22;70834;37.534;-122.308;2024-01-15T03:28:28;11.90;81.30
81383;DHT22;70834;37.534;-122.308;2024-01-15T03:30:51;11.80;81.30
81383;DHT22;70834;37.534;-122.308;2024-01-15T03:33:12;11.80;81.40
81383;DHT22;70834;37.534;-122.308;2024-01-15T03:35:33;11.80;81.40
81383;DHT22;70834;37.534;-122.308;2024-01-15T03:37:55;11.80;81.50
81383;DHT22;70834;37.534;-122.308;2024-01-15T03:40:16;11.70;81.70
81383;DHT22;70834;37.534;-122.308;2024-01-15T03:42:38;11.70;81.80
81383;DHT22;70834;37.534;-122.308;2024-01-15T03:44:59;11.70;82.00
81383;DHT22;70834;37.534;-122.308;2024-01-15T03:47:21;11.70;82.00
81383;DHT22;70834;37.534;-122.308;2024-01-15T03:49:42;11.70;82.00
81383;DHT22;70834;37.534;-122.308;2024-01-15T03:52:04;11.70;82.10
81383;DHT22;70834;37.534;-122.308;2024-01-15T03:54:25;11.60;82.20
81383;DHT22;70834;37.534;-122.308;2024-01-15T03:56:47;11.60;82.10
81383;DHT22;70834;37.534;-122.308;2024-01-15T03:59:09;11.60;82.10
81383;DHT22;70834;37.534;-122.308;2024-01-15T04:01:30;11.60;82.20
81383;DHT22;70834;37.534;-122.308;2024-01-15T04:03:51;11.60;82.20
81383;DHT22;70834;37.534;-122.308;2024-01-15T04:06:13;11.60;82.10
81383;DHT22;70834;37.534;-122.308;2024-01-15T04:08:35;11.60;82.00
81383;DHT22;70834;37.534;-122.308;2024-01-15T04:10:56;11.60;82.00
81383;DHT22;70834;37.534;-122.308;2024-01-15T04:13:17;11.50;82.00
81383;DHT22;70834;37.534;-122.308;2024-01-15T04:15:39;11.50;82.00
81383;DHT22;70834;37.534;-122.308;2024-01-15T04:18:01;11.50;82.00
81383;DHT22;70834;37.534;-122.308;2024-01-15T04:20:23;11.50;82.00
81383;DHT22;70834;37.534;-122.308;2024-01-15T04:22:44;11.40;81.80
81383;DHT22;70834;37.534;-122.308;2024-01-15T04:25:06;11.40;81.80
81383;DHT22;70834;37.534;-122.308;2024-01-15T04:27:27;11.40;81.70
81383;DHT22;70834;37.534;-122.308;2024-01-15T04:29:49;11.40;81.60
81383;DHT22;70834;37.534;-122.308;2024-01-15T04:32:10;11.40;81.70
81383;DHT22;70834;37.534;-122.308;2024-01-15T04:34:32;11.30;81.70
81383;DHT22;70834;37.534;-122.308;2024-01-15T04:36:53;11.30;81.80
81383;DHT22;70834;37.534;-122.308;2024-01-15T04:39:15;11.20;81.80
81383;DHT22;70834;37.534;-122.308;2024-01-15T04:41:36;11.20;82.00
81383;DHT22;70834;37.534;-122.308;2024-01-15T04:43:57;11.20;81.90
81383;DHT22;70834;37.534;-122.308;2024-01-15T04:46:21;11.20;82.00
81383;DHT22;70834;37.534;-122.308;2024-01-15T04:48:42;11.20;82.20
81383;DHT22;70834;37.534;-122.308;2024-01-15T04:51:04;11.10;82.20
81383;DHT22;70834;37.534;-122.308;2024-01-15T04:53:25;11.10;82.40
81383;DHT22;70834;37.534;-122.308;2024-01-15T04:55:47;11.10;82.50
81383;DHT22;70834;37.534;-122.308;2024-01-15T04:58:08;11.10;82.70
81383;DHT22;70834;37.534;-122.308;2024-01-15T05:00:29;11.10;82.80
81383;DHT22;70834;37.534;-122.308;2024-01-15T05:02:50;11.00;82.70
81383;DHT22;70834;37.534;-122.308;2024-01-15T05:05:11;11.00;82.70
81383;DHT22;70834;37.534;-122.308;2024-01-15T05:07:32;11.00;82.90
81383;DHT22;70834;37.534;-122.308;2024-01-15T05:09:53;10.90;82.90
81383;DHT22;70834;37.534;-122.308;2024-01-15T05:12:14;10.90;82.90
81383;DHT22;70834;37.534;-122.308;2024-01-15T05:14:35;10.90;83.00
81383;DHT22;70834;37.534;-122.308;2024-01-15T05:16:56;10.90;83.10
81383;DHT22;70834;37.534;-122.308;2024-01-15T05:19:17;10.90;83.20
81383;DHT22;70834;37.534;-122.308;2024-01-15T05:21:38;10.80;83.10
81383;DHT22;70834;37.534;-122.308;2024-01-15T05:23:59;10.80;83.10
81383;DHT22;70834;37.534;-122.308;2024-01-15T05:26:20;10.80;83.20
81383;DHT22;70834;37.534;-122.308;2024-01-15T05:28:41;10.80;83.80
81383;DHT22;70834;37.534;-122.308;2024-01-15T05:31:05;10.80;83.20
81383;DHT22;70834;37.534;-122.308;2024-01-15T05:33:26;10.70;83.20
81383;DHT22;70834;37.534;-122.308;2024-01-15T05:35:47;10.70;83.30
81383;DHT22;70834;37.534;-122.308;2024-01-15T05:38:10;10.70;83.30
81383;DHT22;70834;37.534;-122.308;2024-01-15T05:40:31;10.70;83.30
81383;DHT22;70834;37.534;-122.308;2024-01-15T05:42:52;10.70;83.30
81383;DHT22;70834;37.534;-122.308;2024-01-15T05:45:13;10.70;83.20
81383;DHT22;70834;37.534;-122.308;2024-01-15T05:47:34;10.70;83.10
81383;DHT22;70834;37.534;-122.308;2024-01-15T05:49:56;10.60;83.00
81383;DHT22;70834;37.534;-122.308;2024-01-15T05:52:17;10.60;83.00
81383;DHT22;70834;37.534;-122.308;2024-01-15T05:54:38;10.60;83.00
81383;DHT22;70834;37.534;-122.308;2024-01-15T05:56:59;10.50;83.00
81383;DHT22;70834;37.534;-122.308;2024-01-15T05:59:20;10.50;83.10
81383;DHT22;70834;37.534;-122.308;2024-01-15T06:01:41;10.50;83.10
81383;DHT22;70834;37.534;-122.308;2024-01-15T06:04:02;10.50;83.30
81383;DHT22;70834;37.534;-122.308;2024-01-15T06:06:23;10.50;83.30
81383;DHT22;70834;37.534;-122.308;2024-01-15T06:08:44;10.40;83.30
81383;DHT22;70834;37.534;-122.308;2024-01-15T06:11:06;10.40;83.40
81383;DHT22;70834;37.534;-122.308;2024-01-15T06:13:27;10.40;83.40
81383;DHT22;70834;37.534;-122.308;2024-01-15T06:15:48;10.40;83.60
81383;DHT22;70834;37.534;-122.308;2024-01-15T06:18:09;10.40;83.80
81383;DHT22;70834;37.534;-122.308;2024-01-15T06:20:30;10.40;83.90
81383;DHT22;70834;37.534;-122.308;2024-01-15T06:22:51;10.40;84.00
81383;DHT22;70834;37.534;-122.308;2024-01-15T06:25:13;10.40;83.90
81383;DHT22;70834;37.534;-122.308;2024-01-15T06:27:34;10.40;83.80
81383;DHT22;70834;37.534;-122.308;2024-01-15T06:29:55;10.40;83.80
81383;DHT22;70834;37.534;-122.308;2024-01-15T06:32:16;10.40;83.90
81383;DHT22;70834;37.534;-122.308;2024-01-15T06:34:40;10.40;84.00
81383;DHT22;70834;37.534;-122.308;2024-01-15T06:37:01;10.40;84.10
81383;DHT22;70834;37.534;-122.308;2024-01-15T06:39:22;10.40;84.10
81383;DHT22;70834;37.534;-122.308;2024-01-15T06:41:43;10.40;83.90
81383;DHT22;70834;37.534;-122.308;2024-01-15T06:44:04;10.40;83.80
81383;DHT22;70834;37.534;-122.308;2024-01-15T06:46:25;10.30;83.70
81383;DHT22;70834;37.534;-122.308;2024-01-15T06:48:46;10.30;83.70
81383;DHT22;70834;37.534;-122.308;2024-01-15T06:51:07;10.30;83.80
81383;DHT22;70834;37.534;-122.308;2024-01-15T06:53:28;10.30;83.80
81383;DHT22;70834;37.534;-122.308;2024-01-15T06:55:49;10.30;83.80
81383;DHT22;70834;37.534;-122.308;2024-01-15T06:58:11;10.30;84.00
81383;DHT22;70834;37.534;-122.308;2024-01-15T07:00:32;10.30;84.00
81383;DHT22;70834;37.534;-122.308;2024-01-15T07:02:53;10.30;84.10
81383;DHT22;70834;37.534;-122.308;2024-01-15T07:05:14;10.30;84.10
81383;DHT22;70834;37.534;-122.308;2024-01-15T07:07:36;10.30;84.20
81383;DHT22;70834;37.534;-122.308;2024-01-15T07:09:57;10.40;84.40
81383;DHT22;70834;37.534;-122.308;2024-01-15T07:12:18;10.40;84.50
81383;DHT22;70834;37.534;-122.308;2024-01-15T07:14:39;10.40;84.50
81383;DHT22;70834;37.534;-122.308;2024-01-15T07:17:00;10.40;84.70
81383;DHT22;70834;37.534;-122.308;2024-01-15T07:19:21;10.50;84.80
81383;DHT22;70834;37.534;-122.308;2024-01-15T07:21:42;10.50;84.90
81383;DHT22;70834;37.534;-122.308;2024-01-15T07:24:03;10.50;84.80
81383;DHT22;70834;37.534;-122.308;2024-01-15T07:26:24;10.60;84.90
81383;DHT22;70834;37.534;-122.308;2024-01-15T07:28:45;10.60;85.60
81383;DHT22;70834;37.534;-122.308;2024-01-15T07:31:06;10.60;85.00
81383;DHT22;70834;37.534;-122.308;2024-01-15T07:33:27;10.60;84.90
81383;DHT22;70834;37.534;-122.308;2024-01-15T07:35:48;10.60;85.30
81383;DHT22;70834;37.534;-122.308;2024-01-15T07:38:09;10.60;84.60
81383;DHT22;70834;37.534;-122.308;2024-01-15T07:40:32;10.60;84.50
81383;DHT22;70834;37.534;-122.308;2024-01-15T07:42:53;10.60;84.50
81383;DHT22;70834;37.534;-122.308;2024-01-15T07:45:14;10.60;84.50
81383;DHT22;70834;37.534;-122.308;2024-01-15T07:47:35;10.60;84.80
81383;DHT22;70834;37.534;-122.308;2024-01-15T07:49:56;10.60;85.00
81383;DHT22;70834;37.534;-122.308;2024-01-15T07:52:17;10.60;85.10
81383;DHT22;70834;37.534;-122.308;2024-01-15T07:54:38;10.70;85.10
81383;DHT22;70834;37.534;-122.308;2024-01-15T07:57:00;10.70;85.00
81383;DHT22;70834;37.534;-122.308;2024-01-15T07:59:21;10.70;84.90
81383;DHT22;70834;37.534;-122.308;2024-01-15T08:01:42;10.70;84.90
81383;DHT22;70834;37.534;-122.308;2024-01-15T08:04:03;10.80;84.90
81383;DHT22;70834;37.534;-122.308;2024-01-15T08:06:24;10.80;84.90
81383;DHT22;70834;37.534;-122.308;2024-01-15T08:08:45;10.80;84.90
81383;DHT22;70834;37.534;-122.308;2024-01-15T08:11:06;10.80;84.80
81383;DHT22;70834;37.534;-122.308;2024-01-15T08:13:27;10.90;84.90
81383;DHT22;70834;37.534;-122.308;2024-01-15T08:15:48;10.90;84.90
81383;DHT22;70834;37.534;-122.308;2024-01-15T08:18:10;11.00;85.00
81383;DHT22;70834;37.534;-122.308;2024-01-15T08:20:31;11.00;85.00
81383;DHT22;70834;37.534;-122.308;2024-01-15T08:22:52;11.10;85.10
81383;DHT22;70834;37.534;-122.308;2024-01-15T08:25:14;11.10;85.10
81383;DHT22;70834;37.534;-122.308;2024-01-15T08:27:35;11.10;85.10
81383;DHT22;70834;37.534;-122.308;2024-01-15T08:29:56;11.10;85.20
81383;DHT22;70834;37.534;-122.308;2024-01-15T08:32:17;11.20;85.20
81383;DHT22;70834;37.534;-122.308;2024-01-15T08:34:38;11.30;85.30
81383;DHT22;70834;37.534;-122.308;2024-01-15T08:36:59;11.30;85.30
81383;DHT22;70834;37.534;-122.308;2024-01-15T08:39:20;11.40;85.40
81383;DHT22;70834;37.534;-122.308;2024-01-15T08:41:41;11.40;85.40
81383;DHT22;70834;37.534;-122.308;2024-01-15T08:44:02;11.40;85.40
81383;DHT22;70834;37.534;-122.308;2024-01-15T08:46:23;11.50;85.40
81383;DHT22;70834;37.534;-122.308;2024-01-15T08:48:45;11.50;85.30
81383;DHT22;70834;37.534;-122.308;2024-01-15T08:51:06;11.60;85.30
81383;DHT22;70834;37.534;-122.308;2024-01-15T08:53:28;11.60;85.30
81383;DHT22;70834;37.534;-122.308;2024-01-15T08:55:49;11.70;85.20
81383;DHT22;70834;37.534;-122.308;2024-01-15T08:58:10;11.70;85.10
81383;DHT22;70834;37.534;-122.308;2024-01-15T09:00:31;11.80;85.10
81383;DHT22;70834;37.534;-122.308;2024-01-15T09:02:52;11.80;85.00
81383;DHT22;70834;37.534;-122.308;2024-01-15T09:05:13;11.80;84.90
81383;DHT22;70834;37.534;-122.308;2024-01-15T09:07:35;11.80;84.70
81383;DHT22;70834;37.534;-122.308;2024-01-15T09:09:56;11.90;85.10
81383;DHT22;70834;37.534;-122.308;2024-01-15T09:12:17;11.90;84.70
81383;DHT22;70834;37.534;-122.308;2024-01-15T09:14:39;11.90;84.60
81383;DHT22;70834;37.534;-122.308;2024-01-15T09:17:00;11.90;84.50
81383;DHT22;70834;37.534;-122.308;2024-01-15T09:19:21;12.00;84.60
81383;DHT22;70834;37.534;-122.308;2024-01-15T09:21:42;12.00;84.50
81383;DHT22;70834;37.534;-122.308;2024-01-15T09:24:03;12.00;84.50
81383;DHT22;70834;37.534;-122.308;2024-01-15T09:26:24;12.00;84.40
81383;DHT22;70834;37.534;-122.308;2024-01-15T09:28:45;12.00;84.40
81383;DHT22;70834;37.534;-122.308;2024-01-15T09:31:06;12.10;84.40
81383;DHT22;70834;37.534;-122.308;2024-01-15T09:33:27;12.10;84.30
81383;DHT22;70834;37.534;-122.308;2024-01-15T09:35:48;12.20;84.20
81383;DHT22;70834;37.534;-122.308;2024-01-15T09:38:09;12.20;84.80
81383;DHT22;70834;37.534;-122.308;2024-01-15T09:40:31;12.20;84.20
81383;DHT22;70834;37.534;-122.308;2024-01-15T09:42:55;12.20;84.10
81383;DHT22;70834;37.534;-122.308;2024-01-15T09:45:16;12.20;83.90
81383;DHT22;70834;37.534;-122.308;2024-01-15T09:47:37;12.10;83.70
81383;DHT22;70834;37.534;-122.308;2024-01-15T09:49:58;12.10;83.70
81383;DHT22;70834;37.534;-122.308;2024-01-15T09:52:19;12.10;83.50
81383;DHT22;70834;37.534;-122.308;2024-01-15T09:54:43;12.00;83.40
81383;DHT22;70834;37.534;-122.308;2024-01-15T09:57:04;12.10;83.30
81383;DHT22;70834;37.534;-122.308;2024-01-15T09:59:25;12.00;83.20
81383;DHT22;70834;37.534;-122.308;2024-01-15T10:01:46;12.00;83.30
81383;DHT22;70834;37.534;-122.308;2024-01-15T10:04:08;12.00;83.30
81383;DHT22;70834;37.534;-122.308;2024-01-15T10:06:30;12.00;83.30
81383;DHT22;70834;37.534;-122.308;2024-01-15T10:08:51;12.10;83.30
81383;DHT22;70834;37.534;-122.308;2024-01-15T10:11:12;12.10;83.30
81383;DHT22;70834;37.534;-122.308;2024-01-15T10:13:33;12.10;83.30
81383;DHT22;70834;37.534;-122.308;2024-01-15T10:15:55;12.00;83.10
81383;DHT22;70834;37.534;-122.308;2024-01-15T10:18:16;12.00;83.00
81383;DHT22;70834;37.534;-122.308;2024-01-15T10:20:37;12.00;82.90
81383;DHT22;70834;37.534;-122.308;2024-01-15T10:22:58;12.00;82.70
81383;DHT22;70834;37.534;-122.308;2024-01-15T10:25:19;12.00;82.60
81383;DHT22;70834;37.534;-122.308;2024-01-15T10:27:45;12.00;82.40
81383;DHT22;70834;37.534;-122.308;2024-01-15T10:30:13;11.90;82.30
81383;DHT22;70834;37.534;-122.308;2024-01-15T10:32:35;11.90;82.20
81383;DHT22;70834;37.534;-122.308;2024-01-15T10:34:56;11.80;82.10
81383;DHT22;70834;37.534;-122.308;2024-01-15T10:37:17;11.80;82.10
81383;DHT22;70834;37.534;-122.308;2024-01-15T10:39:38;11.70;82.60
81383;DHT22;70834;37.534;-122.308;2024-01-15T10:41:59;11.70;81.90
81383;DHT22;70834;37.534;-122.308;2024-01-15T10:44:20;11.60;81.90
81383;DHT22;70834;37.534;-122.308;2024-01-15T10:46:41;11.60;82.00
81383;DHT22;70834;37.534;-122.308;2024-01-15T10:49:03;11.60;82.10
81383;DHT22;70834;37.534;-122.308;2024-01-15T10:51:25;11.50;82.20
81383;DHT22;70834;37.534;-122.308;2024-01-15T10:53:46;11.60;82.40
81383;DHT22;70834;37.534;-122.308;2024-01-15T10:56:08;11.60;82.60
81383;DHT22;70834;37.534;-122.308;2024-01-15T10:58:31;11.60;82.70
81383;DHT22;70834;37.534;-122.308;2024-01-15T11:00:52;11.60;82.80
81383;DHT22;70834;37.534;-122.308;2024-01-15T11:03:13;11.60;82.90
81383;DHT22;70834;37.534;-122.308;2024-01-15T11:05:36;11.70;83.10
81383;DHT22;70834;37.534;-122.308;2024-01-15T11:07:59;11.70;83.10
81383;DHT22;70834;37.534;-122.308;2024-01-15T11:13:03;11.70;83.10
81383;DHT22;70834;37.534;-122.308;2024-01-15T11:15:25;11.70;83.20
81383;DHT22;70834;37.534;-122.308;2024-01-15T11:17:59;11.80;83.30
81383;DHT22;70834;37.534;-122.308;2024-01-15T11:20:26;11.80;83.20
81383;DHT22;70834;37.534;-122.308;2024-01-15T11:22:47;11.80;83.30
81383;DHT22;70834;37.534;-122.308;2024-01-15T11:25:14;11.80;83.30
81383;DHT22;70834;37.534;-122.308;2024-01-15T11:27:40;11.80;83.40
81383;DHT22;70834;37.534;-122.308;2024-01-15T11:30:06;11.90;83.40
81383;DHT22;70834;37.534;-122.308;2024-01-15T11:32:33;11.90;83.40
81383;DHT22;70834;37.534;-122.308;2024-01-15T11:34:58;11.90;83.50
81383;DHT22;70834;37.534;-122.308;2024-01-15T11:37:19;11.90;83.30
81383;DHT22;70834;37.534;-122.308;2024-01-15T11:39:41;12.00;83.20
81383;DHT22;70834;37.534;-122.308;2024-01-15T11:42:05;12.00;83.30
81383;DHT22;70834;37.534;-122.308;2024-01-15T11:44:26;12.00;83.20
81383;DHT22;70834;37.534;-122.308;2024-01-15T11:47:05;12.00;83.20
81383;DHT22;70834;37.534;-122.308;2024-01-15T11:49:35;12.10;83.30
81383;DHT22;70834;37.534;-122.308;2024-01-15T11:52:00;12.10;83.30
81383;DHT22;70834;37.534;-122.308;2024-01-15T11:54:21;12.10;83.30
81383;DHT22;70834;37.534;-122.308;2024-01-15T11:56:44;12.10;83.30
81383;DHT22;70834;37.534;-122.308;2024-01-15T11:59:05;12.10;83.20
81383;DHT22;70834;37.534;-122.308;2024-01-15T12:01:26;12.20;83.30
81383;DHT22;70834;37.534;-122.308;2024-01-15T12:03:47;12.20;83.30
81383;DHT22;70834;37.534;-122.308;2024-01-15T12:06:08;12.20;83.30
81383;DHT22;70834;37.534;-122.308;2024-01-15T12:08:30;12.20;83.30
81383;DHT22;70834;37.534;-122.308;2024-01-15T12:10:51;12.30;83.40
81383;DHT22;70834;37.534;-122.308;2024-01-15T12:13:13;12.30;83.30
81383;DHT22;70834;37.534;-122.308;2024-01-15T12:15:34;12.30;83.30
81383;DHT22;70834;37.534;-122.308;2024-01-15T12:17:56;12.30;83.20
81383;DHT22;70834;37.534;-122.308;2024-01-15T12:20:20;12.40;83.30
81383;DHT22;70834;37.534;-122.308;2024-01-15T12:22:41;12.40;83.10
81383;DHT22;70834;37.534;-122.308;2024-01-15T12:25:02;12.40;83.10
81383;DHT22;70834;37.534;-122.308;2024-01-15T12:27:23;12.40;83.10
81383;DHT22;70834;37.534;-122.308;2024-01-15T12:29:44;12.40;83.20
81383;DHT22;70834;37.534;-122.308;2024-01-15T12:32:05;12.50;83.20
81383;DHT22;70834;37.534;-122.308;2024-01-15T12:34:29;12.50;83.00
81383;DHT22;70834;37.534;-122.308;2024-01-15T12:36:50;12.40;82.80
81383;DHT22;70834;37.534;-122.308;2024-01-15T12:39:11;12.40;82.60
81383;DHT22;70834;37.534;-122.308;2024-01-15T12:41:33;12.40;82.60
81383;DHT22;70834;37.534;-122.308;2024-01-15T12:43:54;12.40;82.40
81383;DHT22;70834;37.534;-122.308;2024-01-15T12:46:15;12.40;82.30
81383;DHT22;70834;37.534;-122.308;2024-01-15T12:48:36;12.40;82.30
81383;DHT22;70834;37.534;-122.308;2024-01-15T12:50:57;12.40;82.30
81383;DHT22;70834;37.534;-122.308;2024-01-15T12:53:18;12.40;82.30
81383;DHT22;70834;37.534;-122.308;2024-01-15T12:55:39;12.40;82.20
81383;DHT22;70834;37.534;-122.308;2024-01-15T12:58:00;12.40;82.20
81383;DHT22;70834;37.534;-122.308;2024-01-15T13:00:21;12.40;82.10
81383;DHT22;70834;37.534;-122.308;2024-01-15T13:02:42;12.30;82.10
81383;DHT22;70834;37.534;-122.308;2024-01-15T13:05:04;12.30;82.10
81383;DHT22;70834;37.534;-122.308;2024-01-15T13:07:26;12.40;81.50
81383;DHT22;70834;37.534;-122.308;2024-01-15T13:09:47;12.40;81.80
81383;DHT22;70834;37.534;-122.308;2024-01-15T13:12:08;12.30;82.00
81383;DHT22;70834;37.534;-122.308;2024-01-15T13:14:29;12.30;82.10
81383;DHT22;70834;37.534;-122.308;2024-01-15T13:16:50;12.20;82.20
81383;DHT22;70834;37.534;-122.308;2024-01-15T13:19:12;12.20;82.30
81383;DHT22;70834;37.534;-122.308;2024-01-15T13:21:33;12.20;82.40
81383;DHT22;70834;37.534;-122.308;2024-01-15T13:23:54;12.20;82.30
81383;DHT22;70834;37.534;-122.308;2024-01-15T13:26:15;12.20;82.30
81383;DHT22;70834;37.534;-122.308;2024-01-15T13:28:38;12.20;82.30
81383;DHT22;70834;37.534;-122.308;2024-01-15T13:30:59;12.20;82.30
81383;DHT22;70834;37.534;-122.308;2024-01-15T13:33:20;12.10;82.20
81383;DHT22;70834;37.534;-122.308;2024-01-15T13:35:41;12.10;82.10
81383;DHT22;70834;37.534;-122.308;2024-01-15T13:38:02;12.10;82.00
81383;DHT22;70834;37.534;-122.308;2024-01-15T13:40:24;12.10;82.00
81383;DHT22;70834;37.534;-122.308;2024-01-15T13:42:45;12.10;82.00
81383;DHT22;70834;37.534;-122.308;2024-01-15T13:45:07;12.00;82.00
81383;DHT22;70834;37.534;-122.308;2024-01-15T13:47:28;12.00;82.00
81383;DHT22;70834;37.534;-122.308;2024-01-15T13:49:49;12.00;82.00
81383;DHT22;70834;37.534;-122.308;2024-01-15T13:52:10;12.00;82.00
81383;DHT22;70834;37.534;-122.308;2024-01-15T13:54:33;11.90;82.00
81383;DHT22;70834;37.534;-122.308;2024-01-15T13:56:54;11.90;81.90
81383;DHT22;70834;37.534;-122.308;2024-01-15T13:59:15;11.80;81.80
81383;DHT22;70834;37.534;-122.308;2024-01-15T14:01:36;11.80;81.80
81383;DHT22;70834;37.534;-122.308;2024-01-15T14:03:57;11.80;81.70
81383;DHT22;70834;37.534;-122.308;2024-01-15T14:06:18;11.70;81.60
81383;DHT22;70834;37.534;-122.308;2024-01-15T14:08:39;11.70;81.50
81383;DHT22;70834;37.534;-122.308;2024-01-15T14:11:00;11.60;81.50
81383;DHT22;70834;37.534;-122.308;2024-01-15T14:13:21;11.60;81.60
81383;DHT22;70834;37.534;-122.308;2024-01-15T14:15:42;11.60;81.70